sensor_id;sensor_type;location;lat;lon;timestamp;pressure;altitude;pressure_sealevel;temperature;humidity
54022;BME280;39936;51.058;17.220;2023-07-29T00:00:08;100986.57;;;15.53;100.00
54022;BME280;39936;51.058;17.220;2023-07-29T00:04:06;100986.52;;;15.52;100.00
54022;BME280;39936;51.058;17.220;2023-07-29T00:08:23;100991.32;;;15.53;100.00
54022;BME280;39936;51.058;17.220;2023-07-29T00:12:19;100984.27;;;15.51;100.00
54022;BME280;39936;51.058;17.220;2023-07-29T00:16:17;100983.80;;;15.53;100.00
54022;BME280;39936;51.058;17.220;2023-07-29T00:19:40;100983.41;;;15.53;100.00
54022;BME280;39936;51.058;17.220;2023-07-29T00:23:18;100988.93;;;15.52;100.00
54022;BME280;39936;51.058;17.220;2023-07-29T00:30:28;100986.44;;;15.44;100.00
54022;BME280;39936;51.058;17.220;2023-07-29T00:34:30;100987.37;;;15.39;100.00
54022;BME280;39936;51.058;17.220;2023-07-29T00:38:02;100990.65;;;15.31;100.00
54022;BME280;39936;51.058;17.220;2023-07-29T00:45:19;100992.09;;;15.14;100.00
54022;BME280;39936;51.058;17.220;2023-07-29T00:48:56;100993.14;;;15.13;100.00
54022;BME280;39936;51.058;17.220;2023-07-29T00:52:47;100999.13;;;15.11;100.00
54022;BME280;39936;51.058;17.220;2023-07-29T00:56:35;100986.27;;;15.00;100.00
54022;BME280;39936;51.058;17.220;2023-07-29T01:00:15;100999.34;;;15.06;100.00
54022;BME280;39936;51.058;17.220;2023-07-29T01:03:56;100999.49;;;15.01;100.00
54022;BME280;39936;51.058;17.220;2023-07-29T01:07:59;100999.02;;;14.99;100.00
54022;BME280;39936;51.058;17.220;2023-07-29T01:16:05;101000.64;;;14.89;100.00
54022;BME280;39936;51.058;17.220;2023-07-29T01:23:38;100998.59;;;14.87;100.00
54022;BME280;39936;51.058;17.220;2023-07-29T01:27:27;100985.61;;;14.78;100.00
54022;BME280;39936;51.058;17.220;2023-07-29T01:42:35;101007.63;;;14.60;100.00
54022;BME280;39936;51.058;17.220;2023-07-29T01:46:18;100991.80;;;14.38;100.00
54022;BME280;39936;51.058;17.220;2023-07-29T01:50:30;101001.12;;;14.26;100.00
54022;BME280;39936;51.058;17.220;2023-07-29T01:54:10;101011.36;;;14.22;100.00
54022;BME280;39936;51.058;17.220;2023-07-29T01:57:49;101015.37;;;14.19;100.00
54022;BME280;39936;51.058;17.220;2023-07-29T02:01:21;101021.14;;;14.20;100.00
54022;BME280;39936;51.058;17.220;2023-07-29T02:05:13;101020.62;;;14.16;100.00
54022;BME280;39936;51.058;17.220;2023-07-29T02:08:29;101022.95;;;14.09;100.00
54022;BME280;39936;51.058;17.220;2023-07-29T02:11:56;101020.88;;;14.04;100.00
54022;BME280;39936;51.058;17.220;2023-07-29T02:15:44;101014.68;;;13.99;100.00
54022;BME280;39936;51.058;17.220;2023-07-29T02:19:20;101016.48;;;13.97;100.00
54022;BME280;39936;51.058;17.220;2023-07-29T02:23:12;101016.18;;;14.03;100.00
54022;BME280;39936;51.058;17.220;2023-07-29T02:26:33;101006.49;;;14.04;100.00
54022;BME280;39936;51.058;17.220;2023-07-29T02:30:26;101004.82;;;14.06;100.00
54022;BME280;39936;51.058;17.220;2023-07-29T02:33:45;101002.32;;;14.03;100.00
54022;BME280;39936;51.058;17.220;2023-07-29T02:41:41;100984.27;;;13.67;100.00
54022;BME280;39936;51.058;17.220;2023-07-29T02:45:45;100992.22;;;13.70;100.00
54022;BME280;39936;51.058;17.220;2023-07-29T02:49:24;101001.72;;;13.77;100.00
54022;BME280;39936;51.058;17.220;2023-07-29T02:53:50;100987.45;;;13.71;100.00
54022;BME280;39936;51.058;17.220;2023-07-29T02:57:25;101000.68;;;13.83;100.00
54022;BME280;39936;51.058;17.220;2023-07-29T03:01:39;100998.40;;;13.81;100.00
54022;BME280;39936;51.058;17.220;2023-07-29T03:05:11;101001.18;;;13.81;100.00
54022;BME280;39936;51.058;17.220;2023-07-29T03:09:04;101000.66;;;13.80;100.00
54022;BME280;39936;51.058;17.220;2023-07-29T03:12:49;101006.76;;;13.83;100.00
54022;BME280;39936;51.058;17.220;2023-07-29T03:16:14;101011.55;;;13.90;100.00
54022;BME280;39936;51.058;17.220;2023-07-29T03:20:36;101009.39;;;13.97;100.00
54022;BME280;39936;51.058;17.220;2023-07-29T03:24:28;101001.94;;;13.98;100.00
54022;BME280;39936;51.058;17.220;2023-07-29T03:28:20;101020.08;;;14.27;100.00
54022;BME280;39936;51.058;17.220;2023-07-29T03:31:39;101015.38;;;14.62;100.00
54022;BME280;39936;51.058;17.220;2023-07-29T03:35:11;101018.12;;;14.94;100.00
54022;BME280;39936;51.058;17.220;2023-07-29T03:38:40;101005.47;;;15.45;100.00
54022;BME280;39936;51.058;17.220;2023-07-29T03:42:46;101006.05;;;16.22;100.00
54022;BME280;39936;51.058;17.220;2023-07-29T03:46:25;100999.07;;;17.07;100.00
54022;BME280;39936;51.058;17.220;2023-07-29T03:49:45;100993.22;;;17.69;100.00
54022;BME280;39936;51.058;17.220;2023-07-29T03:53:05;100979.86;;;17.70;100.00
54022;BME280;39936;51.058;17.220;2023-07-29T03:56:44;100998.45;;;17.83;100.00
54022;BME280;39936;51.058;17.220;2023-07-29T04:00:34;101002.66;;;17.45;100.00
54022;BME280;39936;51.058;17.220;2023-07-29T04:04:22;101004.73;;;17.07;100.00
54022;BME280;39936;51.058;17.220;2023-07-29T04:11:55;101013.59;;;16.48;100.00
54022;BME280;39936;51.058;17.220;2023-07-29T04:15:56;101022.58;;;16.40;100.00
54022;BME280;39936;51.058;17.220;2023-07-29T04:19:34;101014.92;;;16.42;100.00
54022;BME280;39936;51.058;17.220;2023-07-29T04:23:19;101013.01;;;16.83;100.00
54022;BME280;39936;51.058;17.220;2023-07-29T04:27:40;101008.25;;;17.73;100.00
54022;BME280;39936;51.058;17.220;2023-07-29T04:31:20;101009.77;;;18.18;100.00
54022;BME280;39936;51.058;17.220;2023-07-29T04:35:17;101005.70;;;18.38;100.00
54022;BME280;39936;51.058;17.220;2023-07-29T04:38:33;100999.87;;;18.64;100.00
54022;BME280;39936;51.058;17.220;2023-07-29T04:42:25;100978.48;;;19.74;100.00
54022;BME280;39936;51.058;17.220;2023-07-29T04:46:00;100982.96;;;20.43;96.24
54022;BME280;39936;51.058;17.220;2023-07-29T04:49:38;100988.86;;;20.36;97.13
54022;BME280;39936;51.058;17.220;2023-07-29T04:53:01;100989.70;;;20.09;93.58
54022;BME280;39936;51.058;17.220;2023-07-29T04:56:17;100992.13;;;19.74;95.87
54022;BME280;39936;51.058;17.220;2023-07-29T05:00:20;100982.72;;;19.28;97.95
54022;BME280;39936;51.058;17.220;2023-07-29T05:03:40;100991.87;;;19.47;100.00
54022;BME280;39936;51.058;17.220;2023-07-29T05:07:27;100990.81;;;19.35;100.00
54022;BME280;39936;51.058;17.220;2023-07-29T05:10:52;100980.78;;;19.11;100.00
54022;BME280;39936;51.058;17.220;2023-07-29T05:14:21;101000.86;;;19.15;100.00
54022;BME280;39936;51.058;17.220;2023-07-29T05:18:37;101002.24;;;19.05;100.00
54022;BME280;39936;51.058;17.220;2023-07-29T05:23:10;101011.77;;;18.99;100.00
54022;BME280;39936;51.058;17.220;2023-07-29T05:26:49;101009.47;;;19.24;100.00
54022;BME280;39936;51.058;17.220;2023-07-29T05:30:08;101006.07;;;19.54;100.00
54022;BME280;39936;51.058;17.220;2023-07-29T05:34:09;101006.28;;;19.92;100.00
54022;BME280;39936;51.058;17.220;2023-07-29T05:37:27;101006.28;;;20.35;99.95
54022;BME280;39936;51.058;17.220;2023-07-29T05:41:08;101009.95;;;20.54;97.29
54022;BME280;39936;51.058;17.220;2023-07-29T05:45:15;101005.37;;;20.91;97.23
54022;BME280;39936;51.058;17.220;2023-07-29T05:49:27;100992.34;;;21.11;90.78
54022;BME280;39936;51.058;17.220;2023-07-29T05:53:38;101002.63;;;21.40;88.22
54022;BME280;39936;51.058;17.220;2023-07-29T05:57:22;101002.61;;;21.60;89.01
54022;BME280;39936;51.058;17.220;2023-07-29T06:01:40;101005.09;;;21.84;86.88
54022;BME280;39936;51.058;17.220;2023-07-29T06:05:23;101005.56;;;21.89;86.96
54022;BME280;39936;51.058;17.220;2023-07-29T06:09:13;101002.52;;;22.28;87.22
54022;BME280;39936;51.058;17.220;2023-07-29T06:13:46;101000.55;;;22.70;84.04
54022;BME280;39936;51.058;17.220;2023-07-29T06:17:45;100993.12;;;23.07;83.27
54022;BME280;39936;51.058;17.220;2023-07-29T06:22:29;100991.62;;;23.30;80.38
54022;BME280;39936;51.058;17.220;2023-07-29T06:26:43;100996.11;;;23.43;79.29
54022;BME280;39936;51.058;17.220;2023-07-29T06:30:03;100995.17;;;23.64;78.26
54022;BME280;39936;51.058;17.220;2023-07-29T06:33:33;100990.68;;;23.92;74.95
54022;BME280;39936;51.058;17.220;2023-07-29T06:37:48;100978.83;;;23.94;77.17
54022;BME280;39936;51.058;17.220;2023-07-29T06:41:19;100992.04;;;24.18;76.57
54022;BME280;39936;51.058;17.220;2023-07-29T06:49:16;100996.86;;;24.55;73.12
54022;BME280;39936;51.058;17.220;2023-07-29T06:52:42;100987.78;;;24.81;69.78
54022;BME280;39936;51.058;17.220;2023-07-29T06:56:12;100980.50;;;24.70;70.27
54022;BME280;39936;51.058;17.220;2023-07-29T07:00:12;100979.77;;;24.47;70.62
54022;BME280;39936;51.058;17.220;2023-07-29T07:04:22;100979.98;;;24.51;72.54
54022;BME280;39936;51.058;17.220;2023-07-29T07:08:26;100977.13;;;24.34;71.16
54022;BME280;39936;51.058;17.220;2023-07-29T07:12:23;100974.05;;;24.31;70.69
54022;BME280;39936;51.058;17.220;2023-07-29T07:16:18;100980.75;;;24.46;70.92
54022;BME280;39936;51.058;17.220;2023-07-29T07:20:15;100973.16;;;24.63;69.04
54022;BME280;39936;51.058;17.220;2023-07-29T07:23:59;100973.63;;;24.53;68.98
54022;BME280;39936;51.058;17.220;2023-07-29T07:28:06;100975.19;;;24.61;72.88
54022;BME280;39936;51.058;17.220;2023-07-29T07:31:33;100977.06;;;24.91;73.41
54022;BME280;39936;51.058;17.220;2023-07-29T07:35:27;100975.33;;;24.94;72.35
54022;BME280;39936;51.058;17.220;2023-07-29T07:38:43;100977.55;;;25.07;70.89
54022;BME280;39936;51.058;17.220;2023-07-29T07:41:59;100971.02;;;25.40;69.65
54022;BME280;39936;51.058;17.220;2023-07-29T07:46:03;100961.85;;;25.49;66.35
54022;BME280;39936;51.058;17.220;2023-07-29T07:49:33;100959.98;;;25.71;68.69
54022;BME280;39936;51.058;17.220;2023-07-29T07:53:10;100953.82;;;25.98;65.49
54022;BME280;39936;51.058;17.220;2023-07-29T07:56:34;100954.19;;;25.93;69.39
54022;BME280;39936;51.058;17.220;2023-07-29T08:00:15;100943.54;;;25.94;66.61
54022;BME280;39936;51.058;17.220;2023-07-29T08:08:12;100950.16;;;26.06;64.37
54022;BME280;39936;51.058;17.220;2023-07-29T08:11:35;100949.34;;;25.91;67.48
54022;BME280;39936;51.058;17.220;2023-07-29T08:15:18;100940.77;;;25.94;66.59
54022;BME280;39936;51.058;17.220;2023-07-29T08:19:23;100944.87;;;26.14;65.24
54022;BME280;39936;51.058;17.220;2023-07-29T08:22:44;100946.02;;;26.00;65.76
54022;BME280;39936;51.058;17.220;2023-07-29T08:26:13;100928.77;;;26.05;67.49
54022;BME280;39936;51.058;17.220;2023-07-29T08:29:54;100933.62;;;25.99;64.87
54022;BME280;39936;51.058;17.220;2023-07-29T08:33:14;100924.85;;;26.18;66.43
54022;BME280;39936;51.058;17.220;2023-07-29T08:44:42;100910.57;;;26.91;61.21
54022;BME280;39936;51.058;17.220;2023-07-29T08:48:41;100902.98;;;26.70;62.60
54022;BME280;39936;51.058;17.220;2023-07-29T08:52:43;100909.94;;;26.47;60.58
54022;BME280;39936;51.058;17.220;2023-07-29T08:56:03;100905.31;;;26.46;63.19
54022;BME280;39936;51.058;17.220;2023-07-29T08:59:37;100903.90;;;26.52;63.51
54022;BME280;39936;51.058;17.220;2023-07-29T09:07:44;100897.27;;;26.56;62.30
54022;BME280;39936;51.058;17.220;2023-07-29T09:11:37;100892.53;;;26.80;61.87
54022;BME280;39936;51.058;17.220;2023-07-29T09:15:28;100891.84;;;26.73;61.14
54022;BME280;39936;51.058;17.220;2023-07-29T09:19:33;100881.71;;;26.84;64.51
54022;BME280;39936;51.058;17.220;2023-07-29T09:23:19;100876.84;;;27.24;59.59
54022;BME280;39936;51.058;17.220;2023-07-29T09:27:08;100886.91;;;26.95;59.95
54022;BME280;39936;51.058;17.220;2023-07-29T09:34:59;100894.59;;;26.52;62.84
54022;BME280;39936;51.058;17.220;2023-07-29T09:38:16;100884.43;;;26.35;62.02
54022;BME280;39936;51.058;17.220;2023-07-29T09:41:31;100860.90;;;26.06;60.81
54022;BME280;39936;51.058;17.220;2023-07-29T09:45:10;100881.55;;;26.34;61.94
54022;BME280;39936;51.058;17.220;2023-07-29T09:49:14;100864.95;;;26.16;61.40
54022;BME280;39936;51.058;17.220;2023-07-29T09:53:46;100854.54;;;26.37;63.21
54022;BME280;39936;51.058;17.220;2023-07-29T09:57:07;100874.98;;;26.73;64.10
54022;BME280;39936;51.058;17.220;2023-07-29T10:00:25;100869.58;;;27.08;58.83
54022;BME280;39936;51.058;17.220;2023-07-29T10:04:08;100853.64;;;27.46;57.39
54022;BME280;39936;51.058;17.220;2023-07-29T10:07:58;100855.23;;;27.79;61.81
54022;BME280;39936;51.058;17.220;2023-07-29T10:11:33;100855.97;;;27.94;60.20
54022;BME280;39936;51.058;17.220;2023-07-29T10:15:48;100847.12;;;28.11;58.45
54022;BME280;39936;51.058;17.220;2023-07-29T10:19:24;100856.81;;;28.13;56.34
54022;BME280;39936;51.058;17.220;2023-07-29T10:23:31;100850.33;;;28.07;57.17
54022;BME280;39936;51.058;17.220;2023-07-29T10:27:12;100846.98;;;28.01;58.96
54022;BME280;39936;51.058;17.220;2023-07-29T10:31:00;100822.32;;;27.96;58.29
54022;BME280;39936;51.058;17.220;2023-07-29T10:34:22;100847.55;;;28.14;59.08
54022;BME280;39936;51.058;17.220;2023-07-29T10:37:57;100847.97;;;28.00;56.00
54022;BME280;39936;51.058;17.220;2023-07-29T10:45:22;100825.12;;;27.79;55.63
54022;BME280;39936;51.058;17.220;2023-07-29T10:52:46;100813.98;;;26.90;56.29
54022;BME280;39936;51.058;17.220;2023-07-29T10:56:34;100821.92;;;26.99;57.68
54022;BME280;39936;51.058;17.220;2023-07-29T11:00:16;100815.21;;;27.13;58.05
54022;BME280;39936;51.058;17.220;2023-07-29T11:07:22;100803.70;;;27.58;56.57
54022;BME280;39936;51.058;17.220;2023-07-29T11:11:22;100794.36;;;27.87;55.48
54022;BME280;39936;51.058;17.220;2023-07-29T11:18:54;100786.29;;;27.85;56.11
54022;BME280;39936;51.058;17.220;2023-07-29T11:22:14;100785.71;;;27.73;56.49
54022;BME280;39936;51.058;17.220;2023-07-29T11:25:56;100782.14;;;27.68;57.26
54022;BME280;39936;51.058;17.220;2023-07-29T11:29:34;100776.17;;;27.72;57.01
54022;BME280;39936;51.058;17.220;2023-07-29T11:33:04;100773.92;;;27.94;54.47
54022;BME280;39936;51.058;17.220;2023-07-29T11:36:47;100777.03;;;27.98;54.41
54022;BME280;39936;51.058;17.220;2023-07-29T11:40:29;100776.45;;;27.82;54.30
54022;BME280;39936;51.058;17.220;2023-07-29T11:44:16;100770.13;;;27.78;53.61
54022;BME280;39936;51.058;17.220;2023-07-29T11:48:28;100762.67;;;27.42;54.85
54022;BME280;39936;51.058;17.220;2023-07-29T11:51:57;100750.92;;;27.62;54.94
54022;BME280;39936;51.058;17.220;2023-07-29T11:56:21;100754.49;;;27.61;53.86
54022;BME280;39936;51.058;17.220;2023-07-29T11:59:42;100741.92;;;27.58;55.04
54022;BME280;39936;51.058;17.220;2023-07-29T12:03:36;100748.98;;;27.46;54.69
54022;BME280;39936;51.058;17.220;2023-07-29T12:07:45;100761.19;;;26.85;55.32
54022;BME280;39936;51.058;17.220;2023-07-29T12:11:00;100769.37;;;26.58;56.52
54022;BME280;39936;51.058;17.220;2023-07-29T12:14:36;100767.10;;;26.43;56.40
54022;BME280;39936;51.058;17.220;2023-07-29T12:18:14;100751.33;;;26.33;57.45
54022;BME280;39936;51.058;17.220;2023-07-29T12:22:19;100765.37;;;26.30;57.63
54022;BME280;39936;51.058;17.220;2023-07-29T12:26:33;100760.06;;;26.60;57.25
54022;BME280;39936;51.058;17.220;2023-07-29T12:30:19;100735.12;;;26.52;54.62
54022;BME280;39936;51.058;17.220;2023-07-29T12:34:27;100743.10;;;26.80;53.66
54022;BME280;39936;51.058;17.220;2023-07-29T12:37:43;100736.25;;;27.20;54.23
54022;BME280;39936;51.058;17.220;2023-07-29T12:41:44;100729.66;;;27.48;53.62
54022;BME280;39936;51.058;17.220;2023-07-29T12:45:00;100692.55;;;27.67;54.28
54022;BME280;39936;51.058;17.220;2023-07-29T12:48:35;100712.42;;;27.91;51.88
54022;BME280;39936;51.058;17.220;2023-07-29T12:52:44;100710.12;;;27.83;51.94
54022;BME280;39936;51.058;17.220;2023-07-29T12:56:15;100699.84;;;28.00;51.67
54022;BME280;39936;51.058;17.220;2023-07-29T13:00:15;100695.76;;;27.94;51.83
54022;BME280;39936;51.058;17.220;2023-07-29T13:03:28;100699.84;;;28.00;52.54
54022;BME280;39936;51.058;17.220;2023-07-29T13:06:49;100695.73;;;27.83;51.89
54022;BME280;39936;51.058;17.220;2023-07-29T13:10:24;100704.68;;;27.56;52.06
54022;BME280;39936;51.058;17.220;2023-07-29T13:17:58;100709.97;;;27.47;51.67
54022;BME280;39936;51.058;17.220;2023-07-29T13:21:32;100702.58;;;27.39;51.12
54022;BME280;39936;51.058;17.220;2023-07-29T13:25:38;100711.09;;;27.40;51.29
54022;BME280;39936;51.058;17.220;2023-07-29T13:29:26;100704.59;;;27.15;52.41
54022;BME280;39936;51.058;17.220;2023-07-29T13:37:04;100703.33;;;27.29;53.06
54022;BME280;39936;51.058;17.220;2023-07-29T13:40:42;100699.06;;;27.11;52.62
54022;BME280;39936;51.058;17.220;2023-07-29T13:44:04;100698.76;;;27.05;52.69
54022;BME280;39936;51.058;17.220;2023-07-29T13:47:32;100673.21;;;27.01;51.49
54022;BME280;39936;51.058;17.220;2023-07-29T13:50:49;100676.78;;;26.91;52.16
54022;BME280;39936;51.058;17.220;2023-07-29T13:54:18;100670.11;;;26.81;51.88
54022;BME280;39936;51.058;17.220;2023-07-29T13:57:53;100684.53;;;27.23;52.54
54022;BME280;39936;51.058;17.220;2023-07-29T14:05:13;100674.15;;;27.45;51.48
54022;BME280;39936;51.058;17.220;2023-07-29T14:08:28;100655.62;;;27.65;51.44
54022;BME280;39936;51.058;17.220;2023-07-29T14:11:48;100657.48;;;28.04;50.80
54022;BME280;39936;51.058;17.220;2023-07-29T14:15:08;100647.98;;;28.23;51.13
54022;BME280;39936;51.058;17.220;2023-07-29T14:18:59;100623.73;;;28.11;50.77
54022;BME280;39936;51.058;17.220;2023-07-29T14:22:56;100645.47;;;28.18;48.91
54022;BME280;39936;51.058;17.220;2023-07-29T14:27:18;100653.92;;;27.37;50.79
54022;BME280;39936;51.058;17.220;2023-07-29T14:30:50;100648.86;;;26.98;52.02
54022;BME280;39936;51.058;17.220;2023-07-29T14:34:13;100645.63;;;26.62;53.82
54022;BME280;39936;51.058;17.220;2023-07-29T14:37:32;100638.21;;;26.47;53.78
54022;BME280;39936;51.058;17.220;2023-07-29T14:40:49;100631.02;;;26.44;54.32
54022;BME280;39936;51.058;17.220;2023-07-29T14:44:18;100629.84;;;26.47;54.87
54022;BME280;39936;51.058;17.220;2023-07-29T14:48:25;100626.96;;;26.51;54.48
54022;BME280;39936;51.058;17.220;2023-07-29T14:52:39;100618.51;;;26.63;55.24
54022;BME280;39936;51.058;17.220;2023-07-29T14:56:19;100626.45;;;26.26;55.92
54022;BME280;39936;51.058;17.220;2023-07-29T14:59:39;100624.80;;;26.05;56.59
54022;BME280;39936;51.058;17.220;2023-07-29T15:03:19;100625.30;;;25.92;57.64
54022;BME280;39936;51.058;17.220;2023-07-29T15:06:59;100634.19;;;25.71;57.54
54022;BME280;39936;51.058;17.220;2023-07-29T15:11:11;100629.48;;;25.65;56.86
54022;BME280;39936;51.058;17.220;2023-07-29T15:14:42;100624.30;;;25.62;58.79
54022;BME280;39936;51.058;17.220;2023-07-29T15:18:52;100623.37;;;25.43;59.14
54022;BME280;39936;51.058;17.220;2023-07-29T15:22:34;100629.93;;;25.44;58.18
54022;BME280;39936;51.058;17.220;2023-07-29T15:26:01;100633.66;;;25.42;57.37
54022;BME280;39936;51.058;17.220;2023-07-29T15:29:48;100611.95;;;25.30;56.97
54022;BME280;39936;51.058;17.220;2023-07-29T15:33:49;100634.20;;;25.53;56.97
54022;BME280;39936;51.058;17.220;2023-07-29T15:38:02;100635.96;;;25.58;56.79
54022;BME280;39936;51.058;17.220;2023-07-29T15:41:34;100635.61;;;25.62;58.05
54022;BME280;39936;51.058;17.220;2023-07-29T15:45:14;100631.72;;;25.70;57.52
54022;BME280;39936;51.058;17.220;2023-07-29T15:49:16;100640.33;;;25.71;57.40
54022;BME280;39936;51.058;17.220;2023-07-29T15:53:01;100643.20;;;25.71;56.45
54022;BME280;39936;51.058;17.220;2023-07-29T15:56:45;100641.90;;;25.46;57.57
54022;BME280;39936;51.058;17.220;2023-07-29T16:01:02;100650.34;;;25.41;57.58
54022;BME280;39936;51.058;17.220;2023-07-29T16:05:00;100643.01;;;25.37;57.02
54022;BME280;39936;51.058;17.220;2023-07-29T16:08:39;100650.05;;;25.30;57.58
54022;BME280;39936;51.058;17.220;2023-07-29T16:12:49;100650.09;;;25.13;58.30
54022;BME280;39936;51.058;17.220;2023-07-29T16:16:09;100653.38;;;24.90;59.33
54022;BME280;39936;51.058;17.220;2023-07-29T16:19:26;100659.35;;;24.78;60.26
54022;BME280;39936;51.058;17.220;2023-07-29T16:27:29;100661.75;;;24.39;63.18
54022;BME280;39936;51.058;17.220;2023-07-29T16:31:24;100656.37;;;24.43;63.78
54022;BME280;39936;51.058;17.220;2023-07-29T16:35:38;100634.25;;;24.41;64.11
54022;BME280;39936;51.058;17.220;2023-07-29T16:39:21;100657.24;;;24.56;63.45
54022;BME280;39936;51.058;17.220;2023-07-29T16:42:54;100670.68;;;24.60;62.61
54022;BME280;39936;51.058;17.220;2023-07-29T16:47:15;100663.45;;;24.52;62.21
54022;BME280;39936;51.058;17.220;2023-07-29T16:50:30;100668.84;;;24.43;60.81
54022;BME280;39936;51.058;17.220;2023-07-29T16:54:39;100661.94;;;24.26;60.78
54022;BME280;39936;51.058;17.220;2023-07-29T16:58:22;100664.57;;;24.21;61.32
54022;BME280;39936;51.058;17.220;2023-07-29T17:02:39;100664.37;;;24.02;62.85
54022;BME280;39936;51.058;17.220;2023-07-29T17:12:25;100650.14;;;23.96;63.01
54022;BME280;39936;51.058;17.220;2023-07-29T17:16:26;100649.57;;;23.92;61.80
54022;BME280;39936;51.058;17.220;2023-07-29T17:21:01;100653.16;;;23.82;60.84
54022;BME280;39936;51.058;17.220;2023-07-29T17:24:33;100647.28;;;23.70;61.07
54022;BME280;39936;51.058;17.220;2023-07-29T17:28:24;100658.70;;;23.68;60.95
54022;BME280;39936;51.058;17.220;2023-07-29T17:32:39;100657.23;;;23.65;61.06
54022;BME280;39936;51.058;17.220;2023-07-29T17:36:10;100666.80;;;23.49;61.31
54022;BME280;39936;51.058;17.220;2023-07-29T17:40:19;100670.73;;;23.41;61.83
54022;BME280;39936;51.058;17.220;2023-07-29T17:43:59;100676.65;;;23.59;61.90
54022;BME280;39936;51.058;17.220;2023-07-29T17:47:30;100670.66;;;23.85;61.41
54022;BME280;39936;51.058;17.220;2023-07-29T17:51:32;100667.82;;;23.92;61.11
54022;BME280;39936;51.058;17.220;2023-07-29T17:55:38;100681.20;;;24.03;61.56
54022;BME280;39936;51.058;17.220;2023-07-29T17:59:55;100685.18;;;24.05;61.34
54022;BME280;39936;51.058;17.220;2023-07-29T18:03:39;100692.23;;;23.92;62.25
54022;BME280;39936;51.058;17.220;2023-07-29T18:07:16;100701.37;;;23.57;62.99
54022;BME280;39936;51.058;17.220;2023-07-29T18:10:44;100710.31;;;23.28;64.61
54022;BME280;39936;51.058;17.220;2023-07-29T18:14:34;100716.23;;;22.94;66.23
54022;BME280;39936;51.058;17.220;2023-07-29T18:17:58;100724.76;;;22.75;66.53
54022;BME280;39936;51.058;17.220;2023-07-29T18:22:34;100732.81;;;22.60;67.42
54022;BME280;39936;51.058;17.220;2023-07-29T18:26:13;100743.04;;;22.41;67.70
54022;BME280;39936;51.058;17.220;2023-07-29T18:29:59;100747.12;;;22.30;68.19
54022;BME280;39936;51.058;17.220;2023-07-29T18:33:37;100729.59;;;22.01;69.41
54022;BME280;39936;51.058;17.220;2023-07-29T18:36:57;100760.83;;;21.88;70.76
54022;BME280;39936;51.058;17.220;2023-07-29T18:40:36;100728.65;;;21.55;71.13
54022;BME280;39936;51.058;17.220;2023-07-29T18:44:17;100757.02;;;21.51;72.68
54022;BME280;39936;51.058;17.220;2023-07-29T18:47:57;100756.23;;;21.34;73.72
54022;BME280;39936;51.058;17.220;2023-07-29T18:51:59;100756.13;;;21.14;74.83
54022;BME280;39936;51.058;17.220;2023-07-29T18:55:18;100751.20;;;20.89;75.96
54022;BME280;39936;51.058;17.220;2023-07-29T18:58:59;100761.09;;;20.69;77.39
54022;BME280;39936;51.058;17.220;2023-07-29T19:02:38;100768.37;;;20.52;78.29
54022;BME280;39936;51.058;17.220;2023-07-29T19:06:20;100775.35;;;20.42;78.67
54022;BME280;39936;51.058;17.220;2023-07-29T19:10:10;100775.66;;;20.39;77.88
54022;BME280;39936;51.058;17.220;2023-07-29T19:13:26;100770.61;;;20.35;79.16
54022;BME280;39936;51.058;17.220;2023-07-29T19:17:08;100780.77;;;20.21;79.84
54022;BME280;39936;51.058;17.220;2023-07-29T19:20:51;100789.68;;;20.09;82.17
54022;BME280;39936;51.058;17.220;2023-07-29T19:24:53;100792.73;;;19.97;82.60
54022;BME280;39936;51.058;17.220;2023-07-29T19:28:39;100781.36;;;19.71;84.19
54022;BME280;39936;51.058;17.220;2023-07-29T19:32:27;100801.78;;;19.78;84.72
54022;BME280;39936;51.058;17.220;2023-07-29T19:36:18;100796.41;;;19.78;84.77
54022;BME280;39936;51.058;17.220;2023-07-29T19:39:45;100810.93;;;19.86;84.45
54022;BME280;39936;51.058;17.220;2023-07-29T19:43:13;100813.50;;;19.86;85.45
54022;BME280;39936;51.058;17.220;2023-07-29T19:47:22;100816.86;;;19.81;86.00
54022;BME280;39936;51.058;17.220;2023-07-29T19:51:03;100824.96;;;19.82;86.85
54022;BME280;39936;51.058;17.220;2023-07-29T19:54:46;100829.52;;;19.84;85.98
54022;BME280;39936;51.058;17.220;2023-07-29T19:58:27;100833.26;;;19.89;86.67
54022;BME280;39936;51.058;17.220;2023-07-29T20:02:32;100853.38;;;19.95;85.67
54022;BME280;39936;51.058;17.220;2023-07-29T20:06:04;100863.32;;;20.01;84.95
54022;BME280;39936;51.058;17.220;2023-07-29T20:09:56;100856.52;;;19.98;84.55
54022;BME280;39936;51.058;17.220;2023-07-29T20:13:15;100851.99;;;19.96;85.54
54022;BME280;39936;51.058;17.220;2023-07-29T20:17:35;100841.37;;;19.88;88.48
54022;BME280;39936;51.058;17.220;2023-07-29T20:21:09;100828.66;;;19.88;88.24
54022;BME280;39936;51.058;17.220;2023-07-29T20:24:57;100835.33;;;19.87;88.99
54022;BME280;39936;51.058;17.220;2023-07-29T20:28:56;100841.60;;;19.88;88.46
54022;BME280;39936;51.058;17.220;2023-07-29T20:33:12;100844.58;;;19.93;89.00
54022;BME280;39936;51.058;17.220;2023-07-29T20:36:39;100854.73;;;19.91;88.99
54022;BME280;39936;51.058;17.220;2023-07-29T20:40:34;100875.54;;;19.92;90.80
54022;BME280;39936;51.058;17.220;2023-07-29T20:44:12;100910.46;;;19.96;92.55
54022;BME280;39936;51.058;17.220;2023-07-29T20:47:45;100885.69;;;19.90;92.81
54022;BME280;39936;51.058;17.220;2023-07-29T20:51:33;100892.51;;;19.77;92.71